createdAt,value
2019-05-25T00:00:52.448Z,1017.47
2019-05-25T00:01:52.440Z,1017.44
2019-05-25T00:02:52.440Z,1017.45
2019-05-25T00:03:52.444Z,1017.47
2019-05-25T00:04:52.455Z,1017.47
2019-05-25T00:05:52.401Z,1017.47
2019-05-25T00:06:52.398Z,1017.46
2019-05-25T00:07:52.376Z,1017.49
2019-05-25T00:08:52.356Z,1017.50
2019-05-25T00:09:52.369Z,1017.44
2019-05-25T00:10:52.344Z,1017.48
2019-05-25T00:11:52.340Z,1017.45
2019-05-25T00:12:52.327Z,1017.45
2019-05-25T00:13:52.311Z,1017.45
2019-05-25T00:14:52.316Z,1017.44
2019-05-25T00:15:52.311Z,1017.49
2019-05-25T00:16:52.283Z,1017.48
2019-05-25T00:17:52.512Z,1017.39
2019-05-25T00:18:52.267Z,1017.38
2019-05-25T00:19:52.242Z,1017.37
2019-05-25T00:20:52.241Z,1017.35
2019-05-25T00:21:52.221Z,1017.41
2019-05-25T00:22:52.210Z,1017.40
2019-05-25T00:23:52.200Z,1017.48
2019-05-25T00:24:52.196Z,1017.32
2019-05-25T00:25:52.188Z,1017.39
2019-05-25T00:26:52.170Z,1017.41
2019-05-25T00:27:52.210Z,1017.40
2019-05-25T00:28:52.159Z,1017.37
2019-05-25T00:29:52.138Z,1017.42
2019-05-25T00:30:52.128Z,1017.33
2019-05-25T00:31:52.118Z,1017.36
2019-05-25T00:32:52.127Z,1017.37
2019-05-25T00:33:52.098Z,1017.40
2019-05-25T00:34:52.088Z,1017.38
2019-05-25T00:35:52.075Z,1017.37
2019-05-25T00:36:52.067Z,1017.45
2019-05-25T00:37:52.064Z,1017.41
2019-05-25T00:38:52.055Z,1017.43
2019-05-25T00:39:52.045Z,1017.41
2019-05-25T00:40:52.025Z,1017.39
2019-05-25T00:41:52.012Z,1017.37
2019-05-25T00:42:52.035Z,1017.47
2019-05-25T00:43:52.002Z,1017.45
2019-05-25T00:44:51.982Z,1017.50
2019-05-25T00:45:51.984Z,1017.45
2019-05-25T00:46:51.970Z,1017.48
2019-05-25T00:47:51.942Z,1017.50
2019-05-25T00:48:51.946Z,1017.48
2019-05-25T00:49:51.933Z,1017.51
2019-05-25T00:50:51.930Z,1017.50
2019-05-25T00:51:51.912Z,1017.55
2019-05-25T00:52:51.923Z,1017.58
2019-05-25T00:53:51.884Z,1017.53
2019-05-25T00:54:51.869Z,1017.47
2019-05-25T00:55:51.861Z,1017.48
2019-05-25T00:56:51.847Z,1017.51
2019-05-25T00:57:51.847Z,1017.50
2019-05-25T00:58:51.847Z,1017.52
2019-05-25T00:59:51.826Z,1017.49
2019-05-25T01:00:51.818Z,1017.50
2019-05-25T01:01:51.794Z,1017.48
2019-05-25T01:02:51.898Z,1017.57
2019-05-25T01:03:51.774Z,1017.50
2019-05-25T01:04:51.764Z,1017.54
2019-05-25T01:05:51.753Z,1017.53
2019-05-25T01:06:51.755Z,1017.50
2019-05-25T01:07:51.756Z,1017.51
2019-05-25T01:08:51.722Z,1017.49
2019-05-25T01:09:51.711Z,1017.45
2019-05-25T01:10:51.701Z,1017.46
2019-05-25T01:11:51.701Z,1017.43
2019-05-25T01:12:51.730Z,1017.43
2019-05-25T01:13:51.670Z,1017.39
2019-05-25T01:14:51.664Z,1017.47
2019-05-25T01:15:51.651Z,1017.45
2019-05-25T01:16:51.646Z,1017.51
2019-05-25T01:17:51.630Z,1017.47
2019-05-25T01:18:51.628Z,1017.44
2019-05-25T01:19:51.628Z,1017.45
2019-05-25T01:20:51.609Z,1017.44
2019-05-25T01:21:51.596Z,1017.40
2019-05-25T01:22:51.580Z,1017.44
2019-05-25T01:23:51.574Z,1017.47
2019-05-25T01:24:51.553Z,1017.49
2019-05-25T01:25:51.543Z,1017.46
2019-05-25T01:26:51.561Z,1017.43
2019-05-25T01:27:51.524Z,1017.46
2019-05-25T01:28:51.512Z,1017.60
2019-05-25T01:29:51.514Z,1017.54
2019-05-25T01:30:51.501Z,1017.59
2019-05-25T01:31:51.481Z,1017.55
2019-05-25T01:32:51.498Z,1017.59
2019-05-25T01:33:51.500Z,1017.63
2019-05-25T01:34:51.448Z,1017.55
2019-05-25T01:35:51.431Z,1017.56
2019-05-25T01:36:51.441Z,1017.60
2019-05-25T01:37:51.431Z,1017.59
2019-05-25T01:38:51.412Z,1017.67
2019-05-25T01:39:51.394Z,1017.56
2019-05-25T01:40:51.389Z,1017.68
2019-05-25T01:41:51.389Z,1017.72
2019-05-25T01:42:51.418Z,1017.65
2019-05-25T01:43:51.368Z,1017.65
2019-05-25T01:44:51.338Z,1017.67
2019-05-25T01:45:51.331Z,1017.70
2019-05-25T01:46:51.327Z,1017.71
2019-05-25T01:47:51.339Z,1017.73
2019-05-25T01:48:51.422Z,1017.71
2019-05-25T01:49:51.285Z,1017.68
2019-05-25T01:50:51.276Z,1017.57
2019-05-25T01:51:51.289Z,1017.65
2019-05-25T01:52:51.265Z,1017.68
2019-05-25T01:53:51.273Z,1017.67
2019-05-25T01:54:59.387Z,1017.61
2019-05-25T01:55:52.225Z,1017.65
2019-05-25T01:56:51.213Z,1017.65
2019-05-25T01:57:51.202Z,1017.66
2019-05-25T01:58:51.214Z,1017.68
2019-05-25T01:59:51.182Z,1017.67
2019-05-25T02:00:51.162Z,1017.65
2019-05-25T02:01:51.169Z,1017.65
2019-05-25T02:02:51.161Z,1017.60
2019-05-25T02:03:51.151Z,1017.61
2019-05-25T02:04:51.123Z,1017.60
2019-05-25T02:05:51.120Z,1017.56
2019-05-25T02:06:51.116Z,1017.56
2019-05-25T02:07:51.099Z,1017.53
2019-05-25T02:08:51.092Z,1017.52
2019-05-25T02:09:51.090Z,1017.53
2019-05-25T02:10:51.068Z,1017.55
2019-05-25T02:11:51.114Z,1017.49
2019-05-25T02:12:51.037Z,1017.50
2019-05-25T02:13:51.092Z,1017.51
2019-05-25T02:14:51.073Z,1017.46
2019-05-25T02:15:51.032Z,1017.46
2019-05-25T02:16:51.988Z,1017.47
2019-05-25T02:17:50.993Z,1017.44
2019-05-25T02:18:50.994Z,1017.45
2019-05-25T02:19:50.991Z,1017.42
2019-05-25T02:20:50.954Z,1017.46
2019-05-25T02:21:50.953Z,1017.42
2019-05-25T02:22:50.933Z,1017.44
2019-05-25T02:23:50.930Z,1017.46
2019-05-25T02:24:50.963Z,1017.48
2019-05-25T02:25:50.915Z,1017.47
2019-05-25T02:26:50.903Z,1017.48
2019-05-25T02:27:50.883Z,1017.48
2019-05-25T02:28:50.889Z,1017.46
2019-05-25T02:29:50.870Z,1017.44
2019-05-25T02:30:50.850Z,1017.38
2019-05-25T02:31:50.840Z,1017.46
2019-05-25T02:32:50.834Z,1017.43
2019-05-25T02:33:50.817Z,1017.44
2019-05-25T02:34:50.841Z,1017.42
2019-05-25T02:35:50.808Z,1017.40
2019-05-25T02:36:50.787Z,1017.42
2019-05-25T02:37:50.810Z,1017.38
2019-05-25T02:38:50.775Z,1017.39
2019-05-25T02:39:50.757Z,1017.43
2019-05-25T02:40:50.756Z,1017.38
2019-05-25T02:41:50.734Z,1017.36
2019-05-25T02:42:50.724Z,1017.43
2019-05-25T02:43:50.719Z,1017.38
2019-05-25T02:44:50.695Z,1017.45
2019-05-25T02:45:50.714Z,1017.49
2019-05-25T02:46:50.699Z,1017.39
2019-05-25T02:47:50.663Z,1017.48
2019-05-25T02:48:50.669Z,1017.50
2019-05-25T02:49:50.653Z,1017.42
2019-05-25T02:50:53.014Z,1017.49
2019-05-25T02:51:50.639Z,1017.43
2019-05-25T02:52:50.611Z,1017.43
2019-05-25T02:53:50.602Z,1017.42
2019-05-25T02:54:50.594Z,1017.45
2019-05-25T02:55:50.599Z,1017.47
2019-05-25T02:56:50.572Z,1017.50
2019-05-25T02:57:50.572Z,1017.43
2019-05-25T02:58:50.563Z,1017.46
2019-05-25T02:59:50.549Z,1017.46
2019-05-25T03:00:50.538Z,1017.46
2019-05-25T03:01:50.528Z,1017.49
2019-05-25T03:02:50.526Z,1017.42
2019-05-25T03:03:50.496Z,1017.50
2019-05-25T03:04:50.496Z,1017.50
2019-05-25T03:05:50.478Z,1017.47
2019-05-25T03:06:50.483Z,1017.51
2019-05-25T03:07:50.455Z,1017.34
2019-05-25T03:08:50.455Z,1017.40
2019-05-25T03:09:50.435Z,1017.45
2019-05-25T03:10:50.485Z,1017.40
2019-05-25T03:11:50.424Z,1017.47
2019-05-25T03:12:50.405Z,1017.44
2019-05-25T03:13:50.398Z,1017.44
2019-05-25T03:14:50.402Z,1017.51
2019-05-25T03:15:50.372Z,1017.41
2019-05-25T03:16:50.368Z,1017.48
2019-05-25T03:17:50.351Z,1017.55
2019-05-25T03:18:50.352Z,1017.46
2019-05-25T03:19:50.330Z,1017.55
2019-05-25T03:20:50.321Z,1017.49
2019-05-25T03:21:50.312Z,1017.51
2019-05-25T03:22:50.311Z,1017.55
2019-05-25T03:23:50.287Z,1017.54
2019-05-25T03:24:50.269Z,1017.53
2019-05-25T03:25:50.433Z,1017.49
2019-05-25T03:26:50.257Z,1017.44
2019-05-25T03:27:50.267Z,1017.50
2019-05-25T03:28:50.240Z,1017.53
2019-05-25T03:29:50.226Z,1017.48
2019-05-25T03:30:50.228Z,1017.55
2019-05-25T03:31:50.197Z,1017.56
2019-05-25T03:32:50.196Z,1017.51
2019-05-25T03:33:50.197Z,1017.53
2019-05-25T03:34:50.167Z,1017.48
2019-05-25T03:35:50.168Z,1017.47
2019-05-25T03:36:50.156Z,1017.54
2019-05-25T03:37:50.149Z,1017.45
2019-05-25T03:38:50.126Z,1017.49
2019-05-25T03:39:50.124Z,1017.45
2019-05-25T03:40:50.103Z,1017.55
2019-05-25T03:41:50.090Z,1017.52
2019-05-25T03:42:50.096Z,1017.52
2019-05-25T03:43:50.072Z,1017.59
2019-05-25T03:44:50.069Z,1017.53
2019-05-25T03:45:50.058Z,1017.52
2019-05-25T03:46:50.065Z,1017.45
2019-05-25T03:47:50.037Z,1017.52
2019-05-25T03:48:50.031Z,1017.51
2019-05-25T03:49:50.009Z,1017.56
2019-05-25T03:50:50.009Z,1017.46
2019-05-25T03:51:49.979Z,1017.51
2019-05-25T03:52:50.000Z,1017.51
2019-05-25T03:53:49.978Z,1017.53
2019-05-25T03:54:49.966Z,1017.47
2019-05-25T03:56:04.716Z,1017.51
2019-05-25T03:56:50.936Z,1017.57
2019-05-25T03:57:49.936Z,1017.57
2019-05-25T03:58:49.926Z,1017.57
2019-05-25T03:59:49.895Z,1017.62
2019-05-25T04:00:49.885Z,1017.56
2019-05-25T04:01:49.893Z,1017.57
2019-05-25T04:02:50.131Z,1017.57
2019-05-25T04:03:49.863Z,1017.59
2019-05-25T04:04:49.844Z,1017.58
2019-05-25T04:06:58.762Z,1017.58
2019-05-25T04:07:58.758Z,1017.64
2019-05-25T04:08:58.749Z,1017.69
2019-05-25T04:09:58.710Z,1017.62
2019-05-25T04:10:58.721Z,1017.65
2019-05-25T04:11:58.708Z,1017.67
2019-05-25T04:12:58.699Z,1017.62
2019-05-25T04:13:58.699Z,1017.61
2019-05-25T04:14:58.666Z,1017.64
2019-05-25T04:15:58.723Z,1017.65
2019-05-25T04:16:58.674Z,1017.64
2019-05-25T04:17:58.750Z,1017.65
2019-05-25T04:18:58.633Z,1017.68
2019-05-25T04:19:58.614Z,1017.70
2019-05-25T04:20:58.595Z,1017.69
2019-05-25T04:21:58.585Z,1017.72
2019-05-25T04:22:58.581Z,1017.71
2019-05-25T04:23:58.595Z,1017.70
2019-05-25T04:24:58.641Z,1017.69
2019-05-25T04:25:58.605Z,1017.73
2019-05-25T04:26:58.545Z,1017.73
2019-05-25T04:27:58.521Z,1017.74
2019-05-25T04:28:58.511Z,1017.78
2019-05-25T04:29:58.501Z,1017.74
2019-05-25T04:30:58.510Z,1017.74
2019-05-25T04:31:58.489Z,1017.76
2019-05-25T04:32:58.471Z,1017.77
2019-05-25T04:33:58.459Z,1017.80
2019-05-25T04:34:58.459Z,1017.74
2019-05-25T04:35:58.466Z,1017.77
2019-05-25T04:36:58.431Z,1017.84
2019-05-25T04:37:58.421Z,1017.84
2019-05-25T04:38:58.411Z,1017.73
2019-05-25T04:39:58.404Z,1017.80
2019-05-25T04:40:58.407Z,1017.80
2019-05-25T04:41:58.462Z,1017.79
2019-05-25T04:42:58.373Z,1017.85
2019-05-25T04:43:58.364Z,1017.91
2019-05-25T04:44:58.344Z,1017.82
2019-05-25T04:45:58.347Z,1017.86
2019-05-25T04:46:58.327Z,1017.85
2019-05-25T04:47:58.324Z,1017.90
2019-05-25T04:48:58.302Z,1017.86
2019-05-25T04:49:58.294Z,1017.90
2019-05-25T04:50:58.293Z,1017.90
2019-05-25T04:51:58.283Z,1017.90
2019-05-25T04:52:58.252Z,1017.90
2019-05-25T04:53:58.243Z,1017.94
2019-05-25T04:54:58.232Z,1017.95
2019-05-25T04:55:58.246Z,1017.99
2019-05-25T04:56:58.220Z,1017.92
2019-05-25T04:57:58.200Z,1017.93
2019-05-25T04:58:58.198Z,1017.97
2019-05-25T04:59:58.180Z,1017.94
2019-05-25T05:00:58.168Z,1017.98
2019-05-25T05:01:58.168Z,1017.90
2019-05-25T05:02:58.156Z,1017.94
2019-05-25T05:03:58.148Z,1017.96
2019-05-25T05:04:58.129Z,1017.94
2019-05-25T05:05:58.120Z,1017.97
2019-05-25T05:06:58.147Z,1017.96
2019-05-25T05:07:58.096Z,1018.01
2019-05-25T05:08:58.090Z,1017.99
2019-05-25T05:10:02.766Z,1017.93
2019-05-25T05:10:59.065Z,1017.99
2019-05-25T05:11:58.076Z,1018.05
2019-05-25T05:12:58.058Z,1018.05
2019-05-25T05:13:58.032Z,1017.98
2019-05-25T05:14:58.022Z,1017.98
2019-05-25T05:15:58.024Z,1018.05
2019-05-25T05:16:58.005Z,1018.04
2019-05-25T05:17:57.982Z,1018.03
2019-05-25T05:18:57.981Z,1018.05
2019-05-25T05:19:57.973Z,1018.10
2019-05-25T05:20:57.981Z,1018.07
2019-05-25T05:21:57.949Z,1018.07
2019-05-25T05:22:57.932Z,1018.11
2019-05-25T05:23:57.930Z,1018.12
2019-05-25T05:24:57.919Z,1018.09
2019-05-25T05:25:57.917Z,1018.06
2019-05-25T05:26:57.897Z,1018.09
2019-05-25T05:27:57.915Z,1018.18
2019-05-25T05:28:57.877Z,1018.12
2019-05-25T05:29:57.877Z,1018.16
2019-05-25T05:30:57.872Z,1018.13
2019-05-25T05:31:57.837Z,1018.13
2019-05-25T05:32:57.844Z,1018.20
2019-05-25T05:33:57.816Z,1018.16
2019-05-25T05:34:57.817Z,1018.20
2019-05-25T05:35:57.825Z,1018.22
2019-05-25T05:36:57.790Z,1018.21
2019-05-25T05:37:57.785Z,1018.16
2019-05-25T05:38:57.763Z,1018.19
2019-05-25T05:39:57.756Z,1018.19
2019-05-25T05:40:57.742Z,1018.22
2019-05-25T05:41:57.747Z,1018.18
2019-05-25T05:42:57.735Z,1018.17
2019-05-25T05:43:57.728Z,1018.13
2019-05-25T05:44:57.852Z,1018.15
2019-05-25T05:45:57.690Z,1018.09
2019-05-25T05:46:57.692Z,1018.03
2019-05-25T05:47:57.700Z,1018.10
2019-05-25T05:48:57.688Z,1018.09
2019-05-25T05:49:57.651Z,1018.00
2019-05-25T05:50:57.639Z,1018.07
2019-05-25T05:51:57.639Z,1018.06
2019-05-25T05:52:57.631Z,1018.11
2019-05-25T05:53:57.619Z,1018.10
2019-05-25T05:54:57.597Z,1018.09
2019-05-25T05:55:57.599Z,1018.12
2019-05-25T05:57:11.085Z,1018.12
2019-05-25T05:57:58.578Z,1018.07
2019-05-25T05:58:57.566Z,1018.09
2019-05-25T05:59:57.539Z,1018.17
2019-05-25T06:00:57.534Z,1018.15
2019-05-25T06:01:57.524Z,1018.17
2019-05-25T06:02:57.514Z,1018.20
2019-05-25T06:03:57.525Z,1018.19
2019-05-25T06:04:57.485Z,1018.20
2019-05-25T06:05:57.483Z,1018.22
2019-05-25T06:08:09.022Z,1018.20
2019-05-25T06:09:06.465Z,1018.22
2019-05-25T06:10:06.357Z,1018.26
2019-05-25T06:11:06.359Z,1018.23
2019-05-25T06:12:06.340Z,1018.29
2019-05-25T06:13:06.329Z,1018.32
2019-05-25T06:14:06.333Z,1018.25
2019-05-25T06:15:06.304Z,1018.35
2019-05-25T06:16:06.296Z,1018.32
2019-05-25T06:17:06.276Z,1018.25
2019-05-25T06:18:06.275Z,1018.26
2019-05-25T06:19:06.297Z,1018.31
2019-05-25T06:20:06.246Z,1018.31
2019-05-25T06:21:06.257Z,1018.34
2019-05-25T06:22:06.233Z,1018.40
2019-05-25T06:23:08.596Z,1018.34
2019-05-25T06:24:07.221Z,1018.35
2019-05-25T06:25:06.204Z,1018.36
2019-05-25T06:26:06.193Z,1018.36
2019-05-25T06:27:06.181Z,1018.41
2019-05-25T06:28:06.169Z,1018.37
2019-05-25T06:29:06.165Z,1018.42
2019-05-25T06:30:06.161Z,1018.40
2019-05-25T06:31:06.146Z,1018.39
2019-05-25T06:32:06.120Z,1018.38
2019-05-25T06:33:06.107Z,1018.35
2019-05-25T06:34:06.102Z,1018.39
2019-05-25T06:35:06.108Z,1018.38
2019-05-25T06:36:06.079Z,1018.36
2019-05-25T06:37:06.068Z,1018.34
2019-05-25T06:38:06.060Z,1018.34
2019-05-25T06:39:06.057Z,1018.31
2019-05-25T06:40:06.053Z,1018.33
2019-05-25T06:41:08.555Z,1018.34
2019-05-25T06:42:06.019Z,1018.38
2019-05-25T06:43:06.007Z,1018.38
2019-05-25T06:44:06.009Z,1018.38
2019-05-25T06:45:05.997Z,1018.35
2019-05-25T06:46:05.974Z,1018.40
2019-05-25T06:47:05.954Z,1018.39
2019-05-25T06:48:05.954Z,1018.38
2019-05-25T06:49:05.933Z,1018.37
2019-05-25T06:50:05.943Z,1018.38
2019-05-25T06:51:05.914Z,1018.38
2019-05-25T06:52:05.925Z,1018.41
2019-05-25T06:53:05.904Z,1018.43
2019-05-25T06:54:05.883Z,1018.47
2019-05-25T06:55:05.882Z,1018.41
2019-05-25T06:56:05.871Z,1018.49
2019-05-25T06:57:05.870Z,1018.50
2019-05-25T06:58:05.840Z,1018.42
2019-05-25T06:59:05.830Z,1018.43
2019-05-25T07:00:05.839Z,1018.47
2019-05-25T07:01:05.809Z,1018.49
2019-05-25T07:02:05.798Z,1018.46
2019-05-25T07:03:05.794Z,1018.47
2019-05-25T07:04:05.768Z,1018.46
2019-05-25T07:05:05.787Z,1018.43
2019-05-25T07:06:05.751Z,1018.45
2019-05-25T07:07:05.737Z,1018.36
2019-05-25T07:08:05.753Z,1018.42
2019-05-25T07:09:05.727Z,1018.38
2019-05-25T07:10:05.716Z,1018.42
2019-05-25T07:11:05.719Z,1018.45
2019-05-25T07:12:05.718Z,1018.49
2019-05-25T07:13:05.678Z,1018.48
2019-05-25T07:14:05.685Z,1018.46
2019-05-25T07:15:05.654Z,1018.44
2019-05-25T07:16:05.644Z,1018.53
2019-05-25T07:17:05.634Z,1018.57
2019-05-25T07:18:05.635Z,1018.48
2019-05-25T07:19:05.626Z,1018.51
2019-05-25T07:20:05.623Z,1018.45
2019-05-25T07:21:05.593Z,1018.53
2019-05-25T07:22:05.574Z,1018.53
2019-05-25T07:23:05.561Z,1018.49
2019-05-25T07:24:05.561Z,1018.51
2019-05-25T07:25:05.563Z,1018.52
2019-05-25T07:26:05.551Z,1018.56
2019-05-25T07:27:05.529Z,1018.58
2019-05-25T07:28:05.522Z,1018.47
2019-05-25T07:29:05.511Z,1018.48
2019-05-25T07:30:05.579Z,1018.50
2019-05-25T07:31:05.492Z,1018.55
2019-05-25T07:32:05.473Z,1018.57
2019-05-25T07:33:05.460Z,1018.57
2019-05-25T07:34:05.449Z,1018.52
2019-05-25T07:35:05.438Z,1018.54
2019-05-25T07:36:07.568Z,1018.59
2019-05-25T07:37:05.420Z,1018.54
2019-05-25T07:38:05.407Z,1018.58
2019-05-25T07:39:05.408Z,1018.58
2019-05-25T07:40:05.386Z,1018.64
2019-05-25T07:41:05.385Z,1018.61
2019-05-25T07:42:05.360Z,1018.65
2019-05-25T07:43:05.354Z,1018.64
2019-05-25T07:44:05.357Z,1018.61
2019-05-25T07:45:05.336Z,1018.63
2019-05-25T07:46:05.326Z,1018.69
2019-05-25T07:47:05.315Z,1018.70
2019-05-25T07:48:05.316Z,1018.69
2019-05-25T07:49:05.313Z,1018.75
2019-05-25T07:50:05.302Z,1018.78
2019-05-25T07:51:05.273Z,1018.80
2019-05-25T07:52:05.253Z,1018.83
2019-05-25T07:53:05.254Z,1018.79
2019-05-25T07:54:05.233Z,1018.83
2019-05-25T07:55:05.226Z,1018.79
2019-05-25T07:56:05.212Z,1018.77
2019-05-25T07:57:05.213Z,1018.84
2019-05-25T07:58:16.508Z,1018.80
2019-05-25T07:59:06.183Z,1018.81
2019-05-25T08:00:05.211Z,1018.83
2019-05-25T08:01:05.161Z,1018.86
2019-05-25T08:02:05.150Z,1018.86
2019-05-25T08:03:05.137Z,1018.89
2019-05-25T08:04:05.128Z,1018.81
2019-05-25T08:05:05.129Z,1018.92
2019-05-25T08:06:05.117Z,1018.88
2019-05-25T08:07:05.106Z,1018.86
2019-05-25T08:08:05.577Z,1018.82
2019-05-25T08:09:05.069Z,1018.87
2019-05-25T08:10:05.060Z,1018.94
2019-05-25T08:11:05.068Z,1018.87
2019-05-25T08:12:05.047Z,1018.91
2019-05-25T08:13:05.040Z,1018.84
2019-05-25T08:14:05.026Z,1018.86
2019-05-25T08:15:05.018Z,1018.83
2019-05-25T08:16:05.006Z,1018.85
2019-05-25T08:17:04.986Z,1018.85
2019-05-25T08:18:05.003Z,1018.85
2019-05-25T08:19:04.967Z,1018.88
2019-05-25T08:20:04.965Z,1018.86
2019-05-25T08:21:04.937Z,1018.82
2019-05-25T08:22:04.945Z,1018.87
2019-05-25T08:23:04.925Z,1018.81
2019-05-25T08:24:04.915Z,1018.90
2019-05-25T08:25:04.899Z,1019.01
2019-05-25T08:26:04.902Z,1018.91
2019-05-25T08:27:04.876Z,1019.01
2019-05-25T08:28:04.873Z,1018.93
2019-05-25T08:29:04.860Z,1018.99
2019-05-25T08:30:04.864Z,1018.92
2019-05-25T08:31:04.833Z,1019.03
2019-05-25T08:32:04.822Z,1019.07
2019-05-25T08:33:04.828Z,1019.06
2019-05-25T08:34:04.811Z,1019.11
2019-05-25T08:35:04.796Z,1019.06
2019-05-25T08:36:04.797Z,1018.90
2019-05-25T08:37:04.770Z,1018.93
2019-05-25T08:38:04.763Z,1018.99
2019-05-25T08:39:04.773Z,1018.97
2019-05-25T08:40:04.739Z,1018.98
2019-05-25T08:41:04.739Z,1018.92
2019-05-25T08:42:04.729Z,1019.06
2019-05-25T08:43:04.708Z,1018.96
2019-05-25T08:44:04.731Z,1018.99
2019-05-25T08:45:04.688Z,1018.99
2019-05-25T08:46:04.682Z,1018.96
2019-05-25T08:47:04.686Z,1018.92
2019-05-25T08:48:04.668Z,1018.92
2019-05-25T08:49:04.655Z,1018.98
2019-05-25T08:50:04.659Z,1018.91
2019-05-25T08:51:04.638Z,1019.08
2019-05-25T08:52:04.616Z,1018.96
2019-05-25T08:53:04.603Z,1018.89
2019-05-25T08:54:04.604Z,1018.96
2019-05-25T08:55:04.605Z,1018.99
2019-05-25T08:56:04.570Z,1018.89
2019-05-25T08:57:04.555Z,1018.88
2019-05-25T08:58:04.546Z,1018.86
2019-05-25T08:59:04.535Z,1018.86
2019-05-25T09:00:04.536Z,1018.91
2019-05-25T09:01:04.544Z,1018.89
2019-05-25T09:02:04.505Z,1018.87
2019-05-25T09:03:04.509Z,1018.89
2019-05-25T09:04:04.484Z,1018.94
2019-05-25T09:05:04.521Z,1018.97
2019-05-25T09:06:04.482Z,1018.89
2019-05-25T09:07:04.453Z,1018.86
2019-05-25T09:08:04.443Z,1018.91
2019-05-25T09:09:04.432Z,1018.91
2019-05-25T09:10:04.577Z,1018.85
2019-05-25T09:11:04.423Z,1018.87
2019-05-25T09:12:04.411Z,1018.85
2019-05-25T09:13:04.391Z,1018.90
2019-05-25T09:14:04.385Z,1018.82
2019-05-25T09:15:06.044Z,1018.90
2019-05-25T09:16:04.381Z,1018.87
2019-05-25T09:17:04.352Z,1018.88
2019-05-25T09:18:04.340Z,1018.89
2019-05-25T09:19:04.321Z,1018.93
2019-05-25T09:20:04.318Z,1018.88
2019-05-25T09:21:04.368Z,1018.97
2019-05-25T09:22:04.291Z,1018.88
2019-05-25T09:23:04.289Z,1018.91
2019-05-25T09:24:04.297Z,1018.85
2019-05-25T09:25:04.288Z,1018.88
2019-05-25T09:26:04.261Z,1018.92
2019-05-25T09:27:04.237Z,1018.85
2019-05-25T09:28:04.256Z,1018.89
2019-05-25T09:29:05.100Z,1018.86
2019-05-25T09:30:04.207Z,1018.85
2019-05-25T09:31:04.239Z,1018.89
2019-05-25T09:32:06.977Z,1018.89
2019-05-25T09:33:04.173Z,1018.83
2019-05-25T09:34:04.164Z,1018.87
2019-05-25T09:35:04.146Z,1018.87
2019-05-25T09:36:04.165Z,1018.92
2019-05-25T09:37:04.134Z,1018.91
2019-05-25T09:38:04.125Z,1018.91
2019-05-25T09:39:04.122Z,1018.96
2019-05-25T09:40:04.113Z,1018.86
2019-05-25T09:41:04.102Z,1018.93
2019-05-25T09:42:04.073Z,1018.95
2019-05-25T09:43:04.089Z,1018.92
2019-05-25T09:44:04.059Z,1018.92
2019-05-25T09:45:04.062Z,1018.88
2019-05-25T09:46:04.034Z,1018.87
2019-05-25T09:47:04.051Z,1018.85
2019-05-25T09:48:04.027Z,1018.85
2019-05-25T09:49:04.011Z,1018.91
2019-05-25T09:50:03.999Z,1018.94
2019-05-25T09:51:03.989Z,1018.90
2019-05-25T09:52:04.017Z,1018.90
2019-05-25T09:53:03.979Z,1018.84
2019-05-25T09:54:03.948Z,1018.86
2019-05-25T09:55:03.958Z,1018.89
2019-05-25T09:56:03.927Z,1018.93
2019-05-25T09:57:03.953Z,1018.94
2019-05-25T09:58:03.919Z,1018.87
2019-05-25T09:59:17.605Z,1018.91
2019-05-25T10:00:04.886Z,1018.89
2019-05-25T10:01:03.887Z,1018.92
2019-05-25T10:02:03.864Z,1018.93
2019-05-25T10:03:03.846Z,1018.89
2019-05-25T10:04:03.862Z,1018.84
2019-05-25T10:05:04.063Z,1018.87
2019-05-25T10:06:10.790Z,1018.85
2019-05-25T10:07:04.814Z,1018.85
2019-05-25T10:08:03.835Z,1018.85
2019-05-25T10:09:03.805Z,1018.82
2019-05-25T10:10:03.782Z,1018.79
2019-05-25T10:11:03.771Z,1018.84
2019-05-25T10:12:03.763Z,1018.80
2019-05-25T10:13:03.762Z,1018.80
2019-05-25T10:14:03.745Z,1018.78
2019-05-25T10:15:03.731Z,1018.78
2019-05-25T10:16:03.737Z,1018.70
2019-05-25T10:17:03.711Z,1018.67
2019-05-25T10:18:03.702Z,1018.65
2019-05-25T10:19:03.691Z,1018.65
2019-05-25T10:20:03.675Z,1018.66
2019-05-25T10:21:03.670Z,1018.68
2019-05-25T10:22:03.651Z,1018.67
2019-05-25T10:23:03.659Z,1018.65
2019-05-25T10:24:03.630Z,1018.67
2019-05-25T10:25:03.619Z,1018.67
2019-05-25T10:26:03.608Z,1018.70
2019-05-25T10:27:03.598Z,1018.66
2019-05-25T10:28:03.589Z,1018.59
2019-05-25T10:29:03.588Z,1018.62
2019-05-25T10:30:03.567Z,1018.64
2019-05-25T10:31:03.557Z,1018.65
2019-05-25T10:32:03.567Z,1018.66
2019-05-25T10:33:03.536Z,1018.69
2019-05-25T10:34:03.528Z,1018.63
2019-05-25T10:35:03.516Z,1018.64
2019-05-25T10:36:03.510Z,1018.63
2019-05-25T10:37:03.488Z,1018.59
2019-05-25T10:38:03.489Z,1018.62
2019-05-25T10:39:03.478Z,1018.63
2019-05-25T10:40:03.464Z,1018.53
2019-05-25T10:41:03.476Z,1018.62
2019-05-25T10:42:03.433Z,1018.63
2019-05-25T10:43:03.425Z,1018.60
2019-05-25T10:44:03.416Z,1018.54
2019-05-25T10:45:03.424Z,1018.58
2019-05-25T10:46:03.393Z,1018.51
2019-05-25T10:47:03.393Z,1018.55
2019-05-25T10:48:03.372Z,1018.58
2019-05-25T10:49:03.367Z,1018.53
2019-05-25T10:50:03.361Z,1018.53
2019-05-25T10:51:03.342Z,1018.57
2019-05-25T10:52:03.334Z,1018.55
2019-05-25T10:53:03.356Z,1018.58
2019-05-25T10:54:03.322Z,1018.51
2019-05-25T10:55:03.291Z,1018.52
2019-05-25T10:56:03.331Z,1018.51
2019-05-25T10:57:03.292Z,1018.46
2019-05-25T10:58:03.262Z,1018.44
2019-05-25T10:59:03.259Z,1018.46
2019-05-25T11:00:03.240Z,1018.44
2019-05-25T11:01:03.230Z,1018.49
2019-05-25T11:02:03.261Z,1018.48
2019-05-25T11:03:03.208Z,1018.52
2019-05-25T11:04:03.217Z,1018.53
2019-05-25T11:05:03.189Z,1018.53
2019-05-25T11:06:03.193Z,1018.44
2019-05-25T11:07:03.166Z,1018.46
2019-05-25T11:08:03.166Z,1018.39
2019-05-25T11:09:03.147Z,1018.43
2019-05-25T11:10:03.145Z,1018.37
2019-05-25T11:11:03.129Z,1018.41
2019-05-25T11:12:03.137Z,1018.38
2019-05-25T11:13:03.124Z,1018.38
2019-05-25T11:14:03.095Z,1018.39
2019-05-25T11:15:03.136Z,1018.39
2019-05-25T11:16:03.074Z,1018.44
2019-05-25T11:17:03.073Z,1018.45
2019-05-25T11:18:03.076Z,1018.43
2019-05-25T11:19:03.067Z,1018.46
2019-05-25T11:20:03.041Z,1018.38
2019-05-25T11:21:03.061Z,1018.37
2019-05-25T11:22:03.036Z,1018.40
2019-05-25T11:23:02.996Z,1018.42
2019-05-25T11:24:02.982Z,1018.44
2019-05-25T11:25:03.018Z,1018.47
2019-05-25T11:26:02.961Z,1018.45
2019-05-25T11:27:02.951Z,1018.48
2019-05-25T11:28:02.947Z,1018.52
2019-05-25T11:29:02.956Z,1018.48
2019-05-25T11:30:08.997Z,1018.45
2019-05-25T11:31:03.909Z,1018.46
2019-05-25T11:32:05.462Z,1018.43
2019-05-25T11:33:02.914Z,1018.45
2019-05-25T11:34:02.879Z,1018.46
2019-05-25T11:35:02.878Z,1018.39
2019-05-25T11:36:02.859Z,1018.45
2019-05-25T11:37:02.874Z,1018.41
2019-05-25T11:38:02.837Z,1018.50
2019-05-25T11:39:02.837Z,1018.50
2019-05-25T11:40:02.817Z,1018.48
2019-05-25T11:41:02.797Z,1018.55
2019-05-25T11:42:02.806Z,1018.55
2019-05-25T11:43:02.788Z,1018.51
2019-05-25T11:44:02.777Z,1018.47
2019-05-25T11:45:02.776Z,1018.48
2019-05-25T11:46:02.756Z,1018.52
2019-05-25T11:47:02.768Z,1018.48
2019-05-25T11:48:02.753Z,1018.41
2019-05-25T11:49:02.733Z,1018.47
2019-05-25T11:50:02.706Z,1018.50
2019-05-25T11:51:02.715Z,1018.51
2019-05-25T11:52:02.702Z,1018.49
2019-05-25T11:53:05.722Z,1018.52
2019-05-25T11:54:02.663Z,1018.54
2019-05-25T11:55:02.661Z,1018.48
2019-05-25T11:56:02.686Z,1018.51
2019-05-25T11:57:02.631Z,1018.51
2019-05-25T11:58:02.621Z,1018.51
2019-05-25T11:59:02.622Z,1018.55
2019-05-25T12:00:02.600Z,1018.52
2019-05-25T12:01:02.601Z,1018.53
2019-05-25T12:02:02.593Z,1018.52
2019-05-25T12:03:02.586Z,1018.52
2019-05-25T12:04:02.560Z,1018.56
2019-05-25T12:05:02.549Z,1018.56
2019-05-25T12:06:02.540Z,1018.59
2019-05-25T12:07:02.538Z,1018.51
2019-05-25T12:08:02.510Z,1018.59